createdAt,value
2023-01-01T00:01:56.580Z,15.57
2023-01-01T00:04:24.477Z,17.63
2023-01-01T00:06:52.462Z,19.93
2023-01-01T00:09:39.113Z,28.23
2023-01-01T00:12:07.488Z,19.17
2023-01-01T00:14:35.417Z,48.67
2023-01-01T00:17:03.492Z,22.80
2023-01-01T00:19:31.462Z,82.33
2023-01-01T00:22:02.140Z,53.80
2023-01-01T00:24:39.237Z,30.33
2023-01-01T00:27:07.152Z,15.83
2023-01-01T00:29:35.095Z,15.50
2023-01-01T00:32:04.030Z,14.50
2023-01-01T00:34:33.435Z,14.00
2023-01-01T00:37:01.288Z,13.67
2023-01-01T00:39:29.184Z,12.93
2023-01-01T00:41:58.396Z,12.27
2023-01-01T00:44:26.235Z,11.67
2023-01-01T00:46:54.070Z,11.13
2023-01-01T00:49:21.980Z,11.47
2023-01-01T00:51:49.864Z,10.70
2023-01-01T00:54:17.729Z,10.90
2023-01-01T00:56:45.629Z,9.83
2023-01-01T00:59:14.851Z,10.40
2023-01-01T01:01:42.763Z,9.30
2023-01-01T01:04:10.868Z,9.80
2023-01-01T01:06:38.713Z,9.03
2023-01-01T01:09:07.156Z,8.77
2023-01-01T01:11:35.160Z,8.23
2023-01-01T01:14:03.115Z,8.57
2023-01-01T01:16:34.807Z,7.97
2023-01-01T01:19:04.574Z,7.50
2023-01-01T01:21:34.571Z,7.50
2023-01-01T01:24:04.851Z,8.13
2023-01-01T01:26:34.451Z,7.70
2023-01-01T01:29:02.491Z,7.77
2023-01-01T01:31:33.361Z,7.80
2023-01-01T01:34:01.423Z,7.80
2023-01-01T01:36:30.043Z,7.13
2023-01-01T01:38:58.042Z,6.17
2023-01-01T01:41:28.975Z,7.03
2023-01-01T01:43:59.787Z,5.67
2023-01-01T01:46:35.835Z,5.63
2023-01-01T01:49:06.867Z,5.50
2023-01-01T01:51:40.475Z,5.10
2023-01-01T01:54:20.695Z,4.97
2023-01-01T01:56:53.716Z,4.90
2023-01-01T01:59:23.797Z,4.90
2023-01-01T02:01:54.153Z,4.17
2023-01-01T02:04:22.631Z,4.10
2023-01-01T02:06:52.715Z,3.90
2023-01-01T02:09:20.842Z,3.97
2023-01-01T02:11:48.672Z,4.40
2023-01-01T02:14:16.601Z,3.23
2023-01-01T02:16:48.042Z,3.80
2023-01-01T02:19:34.809Z,3.90
2023-01-01T02:22:11.231Z,3.10
2023-01-01T02:24:51.003Z,3.37
2023-01-01T02:27:27.307Z,2.93
2023-01-01T02:30:01.607Z,3.43
2023-01-01T02:32:37.163Z,2.60
2023-01-01T02:35:23.329Z,2.87
2023-01-01T02:37:57.080Z,2.87
2023-01-01T02:40:26.078Z,2.73
2023-01-01T02:42:56.419Z,2.87
2023-01-01T02:45:25.925Z,2.63
2023-01-01T02:47:53.759Z,2.47
2023-01-01T02:50:24.881Z,2.50
2023-01-01T02:53:08.807Z,2.87
2023-01-01T02:55:47.555Z,2.60
2023-01-01T02:58:42.351Z,3.10
2023-01-01T03:01:22.296Z,2.33
2023-01-01T03:04:01.824Z,3.67
2023-01-01T03:06:38.524Z,2.33
2023-01-01T03:09:15.672Z,2.50
2023-01-01T03:11:49.993Z,2.50
2023-01-01T03:14:25.899Z,2.50
2023-01-01T03:17:00.329Z,2.27
2023-01-01T03:19:32.812Z,2.30
2023-01-01T03:22:04.792Z,2.13
2023-01-01T03:24:35.440Z,2.67
2023-01-01T03:27:07.086Z,2.50
2023-01-01T03:29:39.802Z,2.50
2023-01-01T03:32:14.281Z,2.40
2023-01-01T03:34:45.749Z,2.63
2023-01-01T03:37:19.903Z,2.00
2023-01-01T03:39:52.263Z,1.97
2023-01-01T03:42:27.538Z,2.03
2023-01-01T03:45:01.568Z,2.37
2023-01-01T03:47:31.469Z,2.10
2023-01-01T03:50:00.658Z,2.07
2023-01-01T03:52:43.102Z,1.83
2023-01-01T03:55:18.065Z,2.13
2023-01-01T03:57:56.533Z,2.30
2023-01-01T04:00:28.174Z,1.93
2023-01-01T04:03:01.371Z,2.70
2023-01-01T04:05:30.665Z,2.37
2023-01-01T04:08:03.031Z,2.53
2023-01-01T04:10:33.369Z,2.00
2023-01-01T04:13:04.879Z,1.97
2023-01-01T04:15:35.899Z,2.00
2023-01-01T04:18:05.394Z,1.63
2023-01-01T04:20:33.822Z,1.73
2023-01-01T04:23:03.093Z,2.00
2023-01-01T04:25:31.027Z,1.90
2023-01-01T04:27:59.606Z,2.33
2023-01-01T04:30:28.259Z,2.13
2023-01-01T04:32:56.193Z,2.00
2023-01-01T04:35:25.424Z,1.53
2023-01-01T04:37:53.274Z,1.53
2023-01-01T04:40:21.358Z,1.33
2023-01-01T04:42:49.152Z,1.70
2023-01-01T04:45:17.942Z,1.13
2023-01-01T04:47:45.900Z,1.30
2023-01-01T04:50:13.783Z,1.00
2023-01-01T04:52:43.071Z,1.23
2023-01-01T04:55:11.272Z,1.33
2023-01-01T04:57:39.132Z,1.13
2023-01-01T05:00:08.210Z,1.50
2023-01-01T05:02:36.231Z,1.10
2023-01-01T05:05:04.538Z,0.97
2023-01-01T05:07:34.174Z,1.07
2023-01-01T05:10:03.441Z,1.03
2023-01-01T05:12:31.304Z,1.30
2023-01-01T05:14:59.154Z,1.33
2023-01-01T05:17:27.112Z,0.97
2023-01-01T05:19:55.015Z,1.23
2023-01-01T05:22:22.904Z,1.53
2023-01-01T05:24:50.789Z,1.27
2023-01-01T05:27:20.028Z,1.30
2023-01-01T05:29:47.861Z,1.70
2023-01-01T05:34:42.560Z,1.20
2023-01-01T05:37:10.533Z,1.93
2023-01-01T05:39:38.463Z,1.40
2023-01-01T05:42:06.396Z,1.30
2023-01-01T05:44:35.635Z,1.83
2023-01-01T05:47:03.500Z,1.50
2023-01-01T05:49:31.380Z,1.73
2023-01-01T05:51:59.295Z,1.97
2023-01-01T05:54:27.174Z,2.30
2023-01-01T05:56:55.021Z,2.00
2023-01-01T05:59:22.920Z,1.80
2023-01-01T06:01:52.198Z,1.53
2023-01-01T06:04:20.255Z,1.40
2023-01-01T06:06:48.159Z,2.03
2023-01-01T06:09:16.015Z,1.80
2023-01-01T06:11:43.895Z,2.17
2023-01-01T06:14:11.847Z,1.50
2023-01-01T06:16:39.793Z,1.80
2023-01-01T06:19:09.075Z,1.63
2023-01-01T06:21:36.955Z,2.13
2023-01-01T06:24:05.542Z,1.80
2023-01-01T06:26:34.488Z,2.10
2023-01-01T06:29:03.744Z,1.93
2023-01-01T06:31:37.041Z,1.87
2023-01-01T06:34:10.169Z,1.83
2023-01-01T06:36:38.059Z,2.00
2023-01-01T06:39:06.154Z,1.93
2023-01-01T06:41:34.015Z,1.80
2023-01-01T06:44:02.407Z,2.40
2023-01-01T06:46:31.679Z,2.40
2023-01-01T06:49:01.449Z,1.83
2023-01-01T06:51:32.835Z,1.80
2023-01-01T06:54:02.480Z,2.03
2023-01-01T06:56:30.526Z,1.87
2023-01-01T06:58:59.013Z,2.23
2023-01-01T07:01:29.016Z,2.07
2023-01-01T07:03:58.878Z,2.27
2023-01-01T07:06:27.617Z,2.17
2023-01-01T07:08:56.917Z,2.00
2023-01-01T07:11:25.091Z,2.17
2023-01-01T07:13:53.052Z,2.20
2023-01-01T07:16:21.005Z,2.43
2023-01-01T07:18:50.630Z,2.47
2023-01-01T07:21:30.577Z,2.17
2023-01-01T07:24:01.232Z,2.07
2023-01-01T07:26:30.710Z,2.00
2023-01-01T07:29:06.429Z,3.40
2023-01-01T07:31:36.515Z,1.90
2023-01-01T07:34:04.608Z,2.03
2023-01-01T07:36:32.635Z,2.43
2023-01-01T07:39:01.913Z,2.20
2023-01-01T07:41:29.822Z,2.00
2023-01-01T07:43:57.689Z,2.43
2023-01-01T07:46:25.652Z,2.73
2023-01-01T07:48:53.558Z,1.93
2023-01-01T07:51:21.377Z,1.60
2023-01-01T07:53:49.342Z,1.70
2023-01-01T07:56:18.906Z,2.07
2023-01-01T07:58:46.910Z,2.00
2023-01-01T08:01:15.678Z,2.13
2023-01-01T08:03:43.858Z,1.50
2023-01-01T08:06:13.866Z,2.07
2023-01-01T08:08:41.994Z,1.83
2023-01-01T08:11:10.220Z,1.80
2023-01-01T08:13:39.460Z,2.20
2023-01-01T08:16:08.685Z,1.93
2023-01-01T08:18:36.704Z,2.43
2023-01-01T08:21:05.782Z,2.13
2023-01-01T08:23:33.741Z,2.10
2023-01-01T08:26:02.611Z,2.27
2023-01-01T08:28:31.557Z,2.30
2023-01-01T08:31:01.257Z,1.93
2023-01-01T08:33:29.338Z,2.57
2023-01-01T08:35:57.292Z,1.83
2023-01-01T08:38:25.380Z,2.40
2023-01-01T08:40:53.515Z,2.30
2023-01-01T08:43:21.369Z,2.37
2023-01-01T08:45:49.287Z,2.20
2023-01-01T08:48:18.516Z,2.23
2023-01-01T08:50:46.342Z,2.40
2023-01-01T08:53:14.220Z,2.13
2023-01-01T08:55:42.045Z,1.90
2023-01-01T08:58:09.900Z,2.17
2023-01-01T09:00:37.904Z,1.90
2023-01-01T09:03:05.967Z,1.77
2023-01-01T09:05:35.276Z,1.83
2023-01-01T09:08:03.159Z,2.57
2023-01-01T09:10:31.403Z,2.00
2023-01-01T09:12:59.297Z,2.00
2023-01-01T09:15:27.223Z,2.00
2023-01-01T09:17:55.159Z,1.70
2023-01-01T09:20:23.073Z,1.90
2023-01-01T09:22:52.319Z,1.93
2023-01-01T09:25:20.583Z,1.93
2023-01-01T09:27:48.439Z,1.87
2023-01-01T09:30:16.330Z,2.20
2023-01-01T09:32:44.214Z,1.50
2023-01-01T09:35:12.059Z,1.67
2023-01-01T09:37:39.939Z,1.60
2023-01-01T09:40:19.182Z,1.80
2023-01-01T09:42:51.680Z,1.87
2023-01-01T09:45:24.817Z,1.67
2023-01-01T09:47:56.256Z,1.60
2023-01-01T09:50:28.448Z,2.03
2023-01-01T09:52:58.863Z,1.47
2023-01-01T09:55:35.343Z,1.80
2023-01-01T09:58:03.268Z,1.90
2023-01-01T10:00:35.717Z,1.57
2023-01-01T10:03:36.225Z,2.10
2023-01-01T10:06:16.419Z,1.70
2023-01-01T10:09:08.899Z,1.60
2023-01-01T10:11:46.557Z,2.17
2023-01-01T10:14:23.148Z,1.63
2023-01-01T10:16:55.606Z,1.57
2023-01-01T10:19:29.447Z,1.80
2023-01-01T10:22:02.283Z,1.93
2023-01-01T10:24:38.534Z,1.80
2023-01-01T10:27:08.432Z,1.60
2023-01-01T10:29:45.093Z,1.83
2023-01-01T10:32:22.219Z,1.80
2023-01-01T10:34:51.600Z,1.90
2023-01-01T10:37:20.144Z,1.80
2023-01-01T10:39:48.833Z,2.03
2023-01-01T10:42:18.383Z,1.60
2023-01-01T10:44:47.124Z,2.00
2023-01-01T10:47:25.858Z,1.97
2023-01-01T10:50:02.633Z,2.00
2023-01-01T10:52:36.604Z,1.87
2023-01-01T10:55:06.465Z,2.10
2023-01-01T10:57:38.752Z,1.90
2023-01-01T11:00:22.986Z,1.40
2023-01-01T11:03:15.367Z,2.20
2023-01-01T11:06:02.804Z,1.47
2023-01-01T11:08:32.606Z,2.03
2023-01-01T11:11:02.251Z,2.27
2023-01-01T11:13:33.396Z,1.80
2023-01-01T11:16:01.811Z,2.53
2023-01-01T11:18:35.858Z,1.50
2023-01-01T11:21:06.252Z,1.80
2023-01-01T11:23:36.491Z,1.70
2023-01-01T11:26:07.842Z,1.93
2023-01-01T11:28:37.471Z,1.60
2023-01-01T11:31:16.995Z,1.87
2023-01-01T11:33:48.800Z,2.13
2023-01-01T11:36:23.779Z,2.63
2023-01-01T11:39:04.816Z,1.87
2023-01-01T11:41:43.600Z,1.90
2023-01-01T11:44:23.547Z,2.80
2023-01-01T11:46:51.575Z,1.60
2023-01-01T11:49:24.729Z,2.13
2023-01-01T11:51:52.723Z,2.80
2023-01-01T11:54:32.715Z,2.50
2023-01-01T11:57:05.354Z,2.30
2023-01-01T11:59:41.819Z,2.43
2023-01-01T12:02:15.747Z,3.20
2023-01-01T12:04:49.440Z,2.70
2023-01-01T12:07:20.110Z,2.23
2023-01-01T12:09:55.540Z,2.73
2023-01-01T12:12:29.163Z,2.30
2023-01-01T12:15:03.507Z,2.47
2023-01-01T12:17:38.753Z,2.13
2023-01-01T12:20:13.817Z,2.23
2023-01-01T12:22:42.496Z,3.63
2023-01-01T12:25:14.990Z,2.87
2023-01-01T12:27:56.387Z,1.93
2023-01-01T12:30:31.473Z,2.13
2023-01-01T12:33:30.654Z,2.33
2023-01-01T12:36:08.584Z,2.13
2023-01-01T12:38:57.782Z,2.33
2023-01-01T12:41:33.165Z,2.53
2023-01-01T12:44:10.178Z,2.03
2023-01-01T12:46:48.513Z,2.13
2023-01-01T12:49:44.082Z,2.00
2023-01-01T12:52:22.349Z,2.10
2023-01-01T12:55:36.954Z,2.00
2023-01-01T12:58:11.969Z,2.87
2023-01-01T13:00:41.052Z,2.40
2023-01-01T13:03:18.772Z,2.97
2023-01-01T13:05:51.080Z,2.00
2023-01-01T13:08:19.025Z,1.90
2023-01-01T13:10:49.633Z,2.40
2023-01-01T13:13:18.831Z,2.00
2023-01-01T13:15:52.645Z,2.30
2023-01-01T13:18:25.646Z,2.90
2023-01-01T13:20:59.988Z,2.37
2023-01-01T13:23:53.330Z,2.30
2023-01-01T13:26:37.878Z,2.53
2023-01-01T13:29:33.343Z,2.17
2023-01-01T13:32:04.214Z,2.97
2023-01-01T13:35:05.664Z,2.33
2023-01-01T13:37:45.488Z,2.50
2023-01-01T13:40:50.909Z,2.60
2023-01-01T13:43:36.676Z,3.03
2023-01-01T13:46:14.806Z,2.50
2023-01-01T13:49:02.152Z,2.80
2023-01-01T13:52:05.710Z,2.33
2023-01-01T13:55:08.976Z,2.60
2023-01-01T13:58:00.531Z,2.13
2023-01-01T14:00:36.706Z,2.30
2023-01-01T14:03:12.659Z,2.63
2023-01-01T14:05:45.648Z,2.83
2023-01-01T14:08:29.676Z,2.40
2023-01-01T14:11:00.679Z,2.70
2023-01-01T14:13:30.213Z,2.23
2023-01-01T14:16:01.072Z,2.43
2023-01-01T14:18:34.686Z,2.93
2023-01-01T14:21:03.470Z,2.30
2023-01-01T14:23:34.355Z,2.60
2023-01-01T14:26:07.906Z,3.00
2023-01-01T14:28:36.920Z,2.00
2023-01-01T14:31:10.983Z,2.27
2023-01-01T14:33:39.805Z,2.37
2023-01-01T14:36:17.424Z,2.47
2023-01-01T14:38:46.984Z,2.83
2023-01-01T14:41:21.167Z,2.40
2023-01-01T14:43:51.799Z,2.37
2023-01-01T14:46:22.373Z,3.17
2023-01-01T14:48:52.697Z,2.57
2023-01-01T14:51:23.727Z,2.47
2023-01-01T14:53:53.174Z,2.80
2023-01-01T14:56:28.532Z,2.90
2023-01-01T14:59:03.749Z,1.87
2023-01-01T15:01:31.750Z,2.30
2023-01-01T15:04:01.777Z,2.73
2023-01-01T15:06:30.839Z,3.00
2023-01-01T15:08:58.847Z,2.27
2023-01-01T15:11:29.372Z,2.40
2023-01-01T15:14:00.294Z,2.53
2023-01-01T15:16:33.312Z,2.97
2023-01-01T15:19:19.437Z,2.30
2023-01-01T15:21:47.605Z,2.40
2023-01-01T15:24:20.271Z,2.37
2023-01-01T15:26:53.649Z,2.70
2023-01-01T15:29:28.525Z,2.93
2023-01-01T15:31:59.676Z,4.20
2023-01-01T15:34:32.220Z,14.87
2023-01-01T15:37:10.275Z,3.43
2023-01-01T15:39:47.362Z,2.30
2023-01-01T15:42:36.022Z,2.33
2023-01-01T15:45:21.868Z,2.67
2023-01-01T15:47:50.624Z,2.43
2023-01-01T15:50:24.371Z,3.30
2023-01-01T15:52:56.166Z,2.83
2023-01-01T15:55:26.553Z,2.73
2023-01-01T15:57:56.244Z,2.80
2023-01-01T16:00:26.906Z,2.50
2023-01-01T16:02:59.595Z,2.67
2023-01-01T16:05:28.837Z,2.50
2023-01-01T16:08:01.817Z,2.57
2023-01-01T16:10:29.758Z,2.83
2023-01-01T16:12:59.097Z,2.90
2023-01-01T16:15:27.617Z,3.10
2023-01-01T16:17:56.117Z,4.90
2023-01-01T16:20:27.653Z,27.07
2023-01-01T16:22:55.466Z,13.47
2023-01-01T16:25:23.894Z,3.03
2023-01-01T16:27:51.811Z,3.70
2023-01-01T16:30:25.879Z,2.80
2023-01-01T16:32:53.894Z,3.20
2023-01-01T16:35:21.995Z,3.03
2023-01-01T16:37:49.853Z,2.60
2023-01-01T16:40:18.141Z,4.23
2023-01-01T16:42:46.047Z,3.17
2023-01-01T16:45:18.657Z,3.43
2023-01-01T16:47:48.452Z,3.00
2023-01-01T16:50:18.649Z,3.00
2023-01-01T16:52:46.530Z,2.70
2023-01-01T16:55:15.045Z,2.87
2023-01-01T16:57:43.414Z,2.80
2023-01-01T17:00:13.795Z,2.90
2023-01-01T17:02:42.247Z,2.37
2023-01-01T17:05:12.482Z,2.80
2023-01-01T17:07:40.343Z,2.77
2023-01-01T17:10:09.027Z,3.70
2023-01-01T17:12:36.961Z,4.10
2023-01-01T17:15:05.708Z,3.13
2023-01-01T17:17:33.611Z,2.87
2023-01-01T17:20:01.579Z,3.17
2023-01-01T17:22:34.392Z,3.33
2023-01-01T17:25:02.674Z,2.60
2023-01-01T17:27:30.581Z,3.03
2023-01-01T17:29:58.479Z,60.57
2023-01-01T17:32:26.422Z,13.00
2023-01-01T17:34:54.331Z,3.60
2023-01-01T17:37:22.192Z,2.77
2023-01-01T17:39:51.390Z,3.20
2023-01-01T17:42:19.338Z,3.07
2023-01-01T17:44:47.473Z,2.67
2023-01-01T17:47:15.312Z,2.80
2023-01-01T17:49:43.558Z,2.63
2023-01-01T17:52:11.784Z,2.77
2023-01-01T17:54:39.703Z,5.03
2023-01-01T17:57:08.972Z,3.20
2023-01-01T17:59:36.874Z,3.33
2023-01-01T18:02:05.902Z,3.53
2023-01-01T18:04:34.009Z,3.27
2023-01-01T18:07:06.372Z,3.07
2023-01-01T18:09:36.749Z,3.43
2023-01-01T18:12:05.441Z,3.03
2023-01-01T18:14:34.761Z,2.63
2023-01-01T18:17:02.636Z,2.63
2023-01-01T18:19:32.315Z,2.50
2023-01-01T18:22:00.192Z,2.30
2023-01-01T18:24:28.247Z,2.07
2023-01-01T18:26:56.108Z,1.97
2023-01-01T18:29:24.038Z,1.60
2023-01-01T18:31:53.251Z,1.83
2023-01-01T18:34:21.257Z,1.67
2023-01-01T18:36:49.215Z,2.07
2023-01-01T18:39:22.220Z,1.80
2023-01-01T18:42:18.170Z,2.73
2023-01-01T18:44:46.067Z,2.20
2023-01-01T18:47:17.427Z,1.30
2023-01-01T18:49:49.498Z,1.63
2023-01-01T18:52:25.821Z,1.97
2023-01-01T18:55:03.139Z,2.40
2023-01-01T18:57:31.132Z,2.70
2023-01-01T19:00:00.060Z,2.20
2023-01-01T19:02:38.968Z,2.20
2023-01-01T19:05:19.364Z,2.30
2023-01-01T19:07:52.400Z,2.67
2023-01-01T19:10:20.331Z,2.20
2023-01-01T19:12:49.664Z,2.70
2023-01-01T19:15:20.740Z,2.20
2023-01-01T19:17:50.829Z,3.60
2023-01-01T19:20:22.501Z,2.50
2023-01-01T19:22:50.377Z,2.70
2023-01-01T19:25:42.030Z,2.53
2023-01-01T19:28:28.948Z,3.30
2023-01-01T19:30:56.976Z,2.77
2023-01-01T19:33:26.334Z,6.80
2023-01-01T19:35:54.309Z,4.90
2023-01-01T19:38:22.403Z,3.00
2023-01-01T19:40:50.376Z,3.30
2023-01-01T19:43:18.264Z,3.20
2023-01-01T19:45:46.119Z,2.70
2023-01-01T19:48:14.091Z,3.20
2023-01-01T19:50:43.291Z,3.50
2023-01-01T19:53:11.197Z,3.73
2023-01-01T19:55:40.113Z,3.00
2023-01-01T19:58:08.012Z,3.30
2023-01-01T20:00:35.964Z,3.80
2023-01-01T20:03:34.517Z,3.00
2023-01-01T20:05:53.123Z,3.10
2023-01-01T20:08:21.432Z,3.00
2023-01-01T20:10:49.312Z,3.10
2023-01-01T20:13:17.152Z,3.13
2023-01-01T20:15:47.042Z,3.13
2023-01-01T20:18:15.223Z,3.13
2023-01-01T20:21:03.646Z,3.47
2023-01-01T20:23:32.984Z,3.87
2023-01-01T20:26:00.966Z,4.03
2023-01-01T20:28:46.381Z,3.13
2023-01-01T20:31:14.228Z,3.53
2023-01-01T20:33:42.124Z,3.27
2023-01-01T20:36:27.540Z,3.30
2023-01-01T20:38:56.715Z,3.43
2023-01-01T20:41:24.580Z,3.43
2023-01-01T20:43:52.992Z,3.70
2023-01-01T20:46:21.265Z,3.50
2023-01-01T20:48:49.431Z,3.77
2023-01-01T20:51:17.318Z,3.37
2023-01-01T20:53:45.176Z,2.90
2023-01-01T20:56:14.559Z,3.37
2023-01-01T20:58:48.428Z,3.37
2023-01-01T21:01:18.157Z,2.90
2023-01-01T21:03:46.308Z,3.17
2023-01-01T21:06:18.453Z,3.00
2023-01-01T21:08:49.911Z,2.97
2023-01-01T21:11:19.307Z,3.13
2023-01-01T21:13:47.419Z,3.23
2023-01-01T21:16:18.250Z,3.00
2023-01-01T21:18:47.042Z,2.70
2023-01-01T21:21:19.632Z,2.70
2023-01-01T21:23:48.340Z,2.63
2023-01-01T21:26:21.987Z,2.70
2023-01-01T21:28:49.909Z,2.70
2023-01-01T21:31:18.069Z,2.70
2023-01-01T21:33:47.055Z,2.40
2023-01-01T21:36:19.147Z,2.37
2023-01-01T21:38:48.285Z,2.03
2023-01-01T21:41:23.642Z,2.57
2023-01-01T21:43:54.300Z,2.60
2023-01-01T21:46:44.398Z,2.33
2023-01-01T21:49:18.326Z,2.50
2023-01-01T21:51:51.369Z,2.37
2023-01-01T21:54:24.519Z,2.70
2023-01-01T21:56:58.897Z,2.50
2023-01-01T21:59:38.559Z,2.40
2023-01-01T22:02:32.704Z,3.07
2023-01-01T22:05:02.087Z,2.40
2023-01-01T22:10:24.991Z,2.63
2023-01-01T22:12:58.349Z,2.23
2023-01-01T22:15:37.552Z,2.30
2023-01-01T22:18:23.787Z,2.30
2023-01-01T22:20:52.438Z,2.30
2023-01-01T22:23:35.498Z,2.30
2023-01-01T22:26:05.985Z,2.30
2023-01-01T22:28:43.618Z,2.57
2023-01-01T22:31:17.797Z,2.23
2023-01-01T22:33:48.035Z,2.27
2023-01-01T22:36:18.997Z,2.30
2023-01-01T22:38:46.957Z,2.60
2023-01-01T22:41:15.929Z,2.10
2023-01-01T22:43:47.743Z,2.60
2023-01-01T22:46:27.162Z,2.70
2023-01-01T22:48:58.634Z,2.47
2023-01-01T22:51:29.907Z,2.37
2023-01-01T22:53:57.776Z,2.00
2023-01-01T22:56:25.876Z,2.37
2023-01-01T22:58:57.558Z,2.37
2023-01-01T23:01:25.831Z,2.60
2023-01-01T23:03:54.016Z,2.23
2023-01-01T23:06:22.895Z,2.67
2023-01-01T23:08:51.304Z,2.80
2023-01-01T23:11:19.471Z,2.50
2023-01-01T23:14:07.427Z,2.70
2023-01-01T23:16:37.455Z,2.77
2023-01-01T23:19:06.097Z,2.47
2023-01-01T23:21:36.292Z,2.73
2023-01-01T23:24:07.331Z,2.60
2023-01-01T23:26:35.357Z,2.83
2023-01-01T23:29:04.276Z,2.93
2023-01-01T23:31:33.385Z,2.80
2023-01-01T23:34:03.173Z,2.43
2023-01-01T23:36:31.718Z,2.80
2023-01-01T23:38:59.787Z,2.57
2023-01-01T23:41:27.743Z,2.90
2023-01-01T23:43:55.647Z,3.17
2023-01-01T23:46:23.765Z,2.87
2023-01-01T23:48:53.206Z,2.97
2023-01-01T23:51:22.456Z,2.53
2023-01-01T23:53:50.325Z,2.87
2023-01-01T23:56:18.248Z,3.17
2023-01-01T23:58:46.128Z,3.20
